createdAt,value
2018-05-18T00:00:38.305Z,0
2018-05-18T00:01:37.795Z,0
2018-05-18T00:02:38.170Z,0
2018-05-18T00:03:37.805Z,0
2018-05-18T00:04:38.766Z,0
2018-05-18T00:05:38.335Z,0
2018-05-18T00:06:37.868Z,0
2018-05-18T00:07:38.743Z,0
2018-05-18T00:08:38.238Z,0
2018-05-18T00:09:37.570Z,0
2018-05-18T00:10:37.936Z,0
2018-05-18T00:11:38.186Z,0
2018-05-18T00:12:38.413Z,0
2018-05-18T00:14:20.518Z,0
2018-05-18T00:15:20.979Z,0
2018-05-18T00:16:20.535Z,0
2018-05-18T00:17:20.952Z,0
2018-05-18T00:18:21.211Z,0
2018-05-18T00:19:20.586Z,0
2018-05-18T00:20:21.286Z,0
2018-05-18T00:22:04.459Z,0
2018-05-18T00:23:04.910Z,0
2018-05-18T00:24:05.632Z,0
2018-05-18T00:25:05.207Z,0
2018-05-18T00:26:04.770Z,0
2018-05-18T00:27:05.208Z,0
2018-05-18T00:28:04.783Z,0
2018-05-18T00:29:06.247Z,0
2018-05-18T00:30:06.472Z,0
2018-05-18T00:31:11.961Z,0
2018-05-18T00:32:09.225Z,0
2018-05-18T00:33:05.091Z,0
2018-05-18T00:34:04.823Z,0
2018-05-18T00:35:05.547Z,0
2018-05-18T00:36:05.425Z,0
2018-05-18T00:37:26.759Z,0
2018-05-18T00:38:28.778Z,0
2018-05-18T00:39:27.624Z,0
2018-05-18T00:40:27.077Z,0
2018-05-18T00:41:26.377Z,0
2018-05-18T00:42:26.791Z,0
2018-05-18T00:43:27.476Z,0
2018-05-18T00:44:27.061Z,0
2018-05-18T00:45:47.853Z,0
2018-05-18T00:46:48.318Z,0
2018-05-18T00:47:47.850Z,0
2018-05-18T00:49:09.807Z,0
2018-05-18T00:50:10.397Z,0
2018-05-18T00:51:09.968Z,0
2018-05-18T00:52:31.615Z,0
2018-05-18T00:53:32.191Z,0
2018-05-18T00:54:31.860Z,0
2018-05-18T00:55:32.461Z,0
2018-05-18T00:56:31.980Z,0
2018-05-18T00:57:32.582Z,0
2018-05-18T00:58:32.286Z,0
2018-05-18T00:59:52.788Z,0
2018-05-18T01:00:53.201Z,0
2018-05-18T01:01:53.698Z,0
2018-05-18T01:02:53.111Z,0
2018-05-18T01:04:15.133Z,0
2018-05-18T01:05:15.701Z,0
2018-05-18T01:06:15.568Z,0
2018-05-18T01:07:16.349Z,0
2018-05-18T01:08:15.925Z,0
2018-05-18T01:10:19.998Z,0
2018-05-18T01:11:20.390Z,0
2018-05-18T01:12:20.708Z,0
2018-05-18T01:13:41.413Z,0
2018-05-18T01:14:41.849Z,0
2018-05-18T01:16:03.526Z,0
2018-05-18T01:17:04.251Z,0
2018-05-18T01:18:03.757Z,0
2018-05-18T01:19:04.278Z,0
2018-05-18T01:20:03.897Z,0
2018-05-18T01:21:04.506Z,0
2018-05-18T01:22:04.008Z,0
2018-05-18T01:23:03.573Z,0
2018-05-18T01:24:25.872Z,0
2018-05-18T01:25:26.215Z,0
2018-05-18T01:26:26.648Z,0
2018-05-18T01:27:26.277Z,0
2018-05-18T01:28:26.227Z,0
2018-05-18T01:29:25.985Z,0
2018-05-18T01:30:26.411Z,0
2018-05-18T01:31:26.156Z,0
2018-05-18T01:33:30.999Z,0
2018-05-18T01:34:31.521Z,0
2018-05-18T01:35:31.954Z,0
2018-05-18T01:36:31.486Z,0
2018-05-18T01:37:31.000Z,0
2018-05-18T01:38:31.652Z,0
2018-05-18T01:39:53.327Z,0
2018-05-18T01:40:53.737Z,0
2018-05-18T01:41:53.411Z,0
2018-05-18T01:42:53.947Z,0
2018-05-18T01:43:53.307Z,0
2018-05-18T01:44:53.841Z,0
2018-05-18T01:45:53.313Z,0
2018-05-18T01:47:37.422Z,0
2018-05-18T01:48:37.897Z,0
2018-05-18T01:49:37.590Z,0
2018-05-18T01:50:37.152Z,0
2018-05-18T01:51:37.540Z,0
2018-05-18T01:52:37.061Z,0
2018-05-18T01:53:37.462Z,0
2018-05-18T01:54:37.671Z,0
2018-05-18T01:55:37.287Z,0
2018-05-18T01:56:58.875Z,0
2018-05-18T01:58:00.406Z,0
2018-05-18T01:58:59.116Z,0
2018-05-18T02:00:21.003Z,0
2018-05-18T02:01:42.687Z,0
2018-05-18T02:02:43.091Z,0
2018-05-18T02:03:43.632Z,0
2018-05-18T02:05:04.517Z,0
2018-05-18T02:06:05.040Z,0
2018-05-18T02:07:04.675Z,0
2018-05-18T02:08:48.027Z,0
2018-05-18T02:09:48.952Z,0
2018-05-18T02:10:48.556Z,0
2018-05-18T02:11:48.358Z,0
2018-05-18T02:13:09.080Z,0
2018-05-18T02:14:31.890Z,0
2018-05-18T02:15:31.361Z,0
2018-05-18T02:16:32.722Z,0
2018-05-18T02:17:31.364Z,0
2018-05-18T02:18:32.287Z,0
2018-05-18T02:19:31.939Z,0
2018-05-18T02:20:31.926Z,0
2018-05-18T02:21:31.306Z,0
2018-05-18T02:22:31.973Z,0
2018-05-18T02:23:31.679Z,0
2018-05-18T02:24:31.465Z,0
2018-05-18T02:25:31.895Z,0
2018-05-18T02:26:53.979Z,0
2018-05-18T02:27:54.454Z,0
2018-05-18T02:29:15.174Z,0
2018-05-18T02:30:15.592Z,0
2018-05-18T02:31:15.185Z,0
2018-05-18T02:32:58.035Z,0
2018-05-18T02:33:58.923Z,0
2018-05-18T02:34:58.328Z,0
2018-05-18T02:35:58.726Z,0
2018-05-18T02:36:58.250Z,0
2018-05-18T02:37:58.606Z,0
2018-05-18T02:38:58.398Z,0
2018-05-18T02:39:58.178Z,0
2018-05-18T02:40:59.600Z,0
2018-05-18T02:42:19.242Z,0
2018-05-18T02:43:20.080Z,0
2018-05-18T02:44:19.459Z,0
2018-05-18T02:45:20.360Z,0
2018-05-18T02:46:19.812Z,0
2018-05-18T02:47:19.461Z,0
2018-05-18T02:48:20.178Z,0
2018-05-18T02:49:19.631Z,0
2018-05-18T02:50:20.282Z,0
2018-05-18T02:51:19.720Z,0
2018-05-18T02:52:31.700Z,0
2018-05-18T02:53:20.457Z,0
2018-05-18T02:54:19.833Z,0
2018-05-18T02:55:19.565Z,0
2018-05-18T02:56:20.047Z,0
2018-05-18T02:57:19.623Z,0
2018-05-18T02:58:20.409Z,0
2018-05-18T02:59:20.138Z,0
2018-05-18T03:00:19.460Z,0
2018-05-18T03:01:20.188Z,0
2018-05-18T03:02:19.898Z,0
2018-05-18T03:03:19.726Z,0
2018-05-18T03:04:19.531Z,0
2018-05-18T03:05:20.357Z,0
2018-05-18T03:06:19.884Z,0
2018-05-18T03:07:19.574Z,0
2018-05-18T03:08:20.334Z,0
2018-05-18T03:09:19.720Z,0
2018-05-18T03:10:20.178Z,0
2018-05-18T03:11:19.843Z,0
2018-05-18T03:12:19.782Z,0
2018-05-18T03:13:41.358Z,0
2018-05-18T03:14:42.223Z,0
2018-05-18T03:15:41.785Z,0
2018-05-18T03:16:41.418Z,0
2018-05-18T03:17:42.123Z,0
2018-05-18T03:19:03.551Z,0
2018-05-18T03:20:26.086Z,0
2018-05-18T03:21:26.941Z,0
2018-05-18T03:23:08.749Z,0
2018-05-18T03:24:09.187Z,1
2018-05-18T03:25:09.698Z,1
2018-05-18T03:26:30.500Z,1
2018-05-18T03:27:31.314Z,1
2018-05-18T03:28:30.793Z,1
2018-05-18T03:29:31.334Z,1
2018-05-18T03:30:30.753Z,1
2018-05-18T03:31:31.238Z,1
2018-05-18T03:32:30.479Z,1
2018-05-18T03:33:31.395Z,1
2018-05-18T03:34:52.142Z,2
2018-05-18T03:35:52.771Z,2
2018-05-18T03:36:52.271Z,2
2018-05-18T03:37:52.636Z,2
2018-05-18T03:38:53.172Z,2
2018-05-18T03:39:52.888Z,2
2018-05-18T03:40:52.422Z,2
2018-05-18T03:41:53.132Z,3
2018-05-18T03:43:13.978Z,3
2018-05-18T03:44:15.134Z,3
2018-05-18T03:45:35.759Z,3
2018-05-18T03:46:36.602Z,3
2018-05-18T03:47:36.278Z,4
2018-05-18T03:48:36.782Z,4
2018-05-18T03:49:36.376Z,4
2018-05-18T03:50:36.095Z,5
2018-05-18T03:51:36.676Z,5
2018-05-18T03:52:36.264Z,5
2018-05-18T03:53:36.681Z,5
2018-05-18T03:54:36.514Z,6
2018-05-18T03:55:36.406Z,6
2018-05-18T03:56:36.363Z,6
2018-05-18T03:57:36.207Z,6
2018-05-18T03:58:36.713Z,7
2018-05-18T03:59:36.231Z,7
2018-05-18T04:00:36.699Z,7
2018-05-18T04:01:36.308Z,8
2018-05-18T04:02:36.786Z,8
2018-05-18T04:03:36.122Z,9
2018-05-18T04:04:59.085Z,9
2018-05-18T04:05:59.854Z,10
2018-05-18T04:06:59.804Z,10
2018-05-18T04:08:00.294Z,11
2018-05-18T04:08:59.363Z,11
2018-05-18T04:09:58.942Z,11
2018-05-18T04:11:22.305Z,11
2018-05-18T04:12:23.296Z,12
2018-05-18T04:13:22.997Z,12
2018-05-18T04:14:22.488Z,13
2018-05-18T04:15:23.058Z,14
2018-05-18T04:16:22.652Z,14
2018-05-18T04:17:44.538Z,15
2018-05-18T04:18:45.726Z,16
2018-05-18T04:19:46.045Z,17
2018-05-18T04:20:44.774Z,17
2018-05-18T04:21:45.601Z,17
2018-05-18T04:22:45.108Z,17
2018-05-18T04:24:06.005Z,18
2018-05-18T04:25:06.407Z,19
2018-05-18T04:26:06.096Z,19
2018-05-18T04:27:06.635Z,20
2018-05-18T04:28:06.540Z,21
2018-05-18T04:29:05.902Z,23
2018-05-18T04:30:07.047Z,25
2018-05-18T04:31:06.866Z,27
2018-05-18T04:32:06.463Z,29
2018-05-18T04:33:27.097Z,27
2018-05-18T04:34:27.694Z,27
2018-05-18T04:35:27.736Z,28
2018-05-18T04:36:27.551Z,30
2018-05-18T04:37:48.825Z,32
2018-05-18T04:39:11.304Z,32
2018-05-18T04:40:32.672Z,35
2018-05-18T04:41:33.420Z,37
2018-05-18T04:42:33.089Z,39
2018-05-18T04:43:32.657Z,41
2018-05-18T04:44:33.257Z,43
2018-05-18T04:45:33.420Z,42
2018-05-18T04:46:33.693Z,41
2018-05-18T04:47:34.181Z,40
2018-05-18T04:48:33.586Z,38
2018-05-18T04:49:54.957Z,36
2018-05-18T04:50:55.944Z,36
2018-05-18T04:52:18.021Z,38
2018-05-18T04:53:18.645Z,42
2018-05-18T04:54:18.723Z,47
2018-05-18T04:55:17.473Z,50
2018-05-18T04:56:18.769Z,50
2018-05-18T04:57:40.143Z,47
2018-05-18T04:59:02.864Z,49
2018-05-18T05:00:25.026Z,46
2018-05-18T05:01:28.652Z,46
2018-05-18T05:02:46.742Z,51
2018-05-18T05:03:47.786Z,55
2018-05-18T05:04:47.678Z,56
2018-05-18T05:05:47.342Z,54
2018-05-18T05:07:31.386Z,51
2018-05-18T05:08:53.869Z,49
2018-05-18T05:10:06.639Z,48
2018-05-18T05:10:54.307Z,47
2018-05-18T05:11:54.937Z,48
2018-05-18T05:12:53.719Z,49
2018-05-18T05:13:54.289Z,48
2018-05-18T05:14:54.060Z,48
2018-05-18T05:15:54.339Z,48
2018-05-18T05:16:54.000Z,47
2018-05-18T05:17:53.966Z,47
2018-05-18T05:18:53.879Z,48
2018-05-18T05:19:53.778Z,52
2018-05-18T05:20:54.362Z,57
2018-05-18T05:21:53.866Z,60
2018-05-18T05:22:54.422Z,61
2018-05-18T05:23:53.833Z,61
2018-05-18T05:24:54.281Z,63
2018-05-18T05:25:54.173Z,65
2018-05-18T05:26:53.800Z,67
2018-05-18T05:27:53.500Z,66
2018-05-18T05:28:54.013Z,64
2018-05-18T05:31:21.029Z,65
2018-05-18T05:32:21.903Z,69
2018-05-18T05:33:21.248Z,74
2018-05-18T05:34:20.936Z,75
2018-05-18T05:35:21.745Z,78
2018-05-18T05:36:21.624Z,78
2018-05-18T05:37:21.424Z,78
2018-05-18T05:38:21.418Z,76
2018-05-18T05:39:21.089Z,74
2018-05-18T05:40:21.886Z,71
2018-05-18T05:41:21.676Z,71
2018-05-18T05:42:24.756Z,74
2018-05-18T05:43:22.270Z,77
2018-05-18T05:44:22.347Z,82
2018-05-18T05:45:22.320Z,88
2018-05-18T05:46:22.953Z,99
2018-05-18T05:47:24.941Z,110
2018-05-18T05:48:24.322Z,116
2018-05-18T05:49:23.666Z,117
2018-05-18T05:50:22.899Z,115
2018-05-18T05:51:22.909Z,121
2018-05-18T05:52:46.236Z,116
2018-05-18T05:53:47.609Z,93
2018-05-18T05:54:46.342Z,87
2018-05-18T05:55:46.471Z,83
2018-05-18T05:56:46.498Z,82
2018-05-18T05:57:46.479Z,79
2018-05-18T05:58:46.816Z,77
2018-05-18T05:59:44.420Z,75
2018-05-18T06:00:45.069Z,75
2018-05-18T06:01:44.578Z,77
2018-05-18T06:03:18.384Z,81
2018-05-18T06:04:19.175Z,81
2018-05-18T06:05:19.297Z,79
2018-05-18T06:06:18.949Z,78
2018-05-18T06:07:20.070Z,80
2018-05-18T06:08:40.353Z,82
2018-05-18T06:09:40.184Z,83
2018-05-18T06:11:02.331Z,82
2018-05-18T06:12:24.631Z,84
2018-05-18T06:13:25.633Z,92
2018-05-18T06:14:25.381Z,99
2018-05-18T06:15:25.103Z,105
2018-05-18T06:16:24.864Z,111
2018-05-18T06:17:25.854Z,116
2018-05-18T06:18:24.862Z,118
2018-05-18T06:19:24.896Z,120
2018-05-18T06:20:25.363Z,118
2018-05-18T06:21:25.277Z,115
2018-05-18T06:22:25.275Z,112
2018-05-18T06:23:26.254Z,114
2018-05-18T06:24:25.309Z,115
2018-05-18T06:25:46.652Z,113
2018-05-18T06:26:47.575Z,109
2018-05-18T06:27:47.314Z,103
2018-05-18T06:28:47.287Z,95
2018-05-18T06:29:47.095Z,92
2018-05-18T06:30:47.077Z,90
2018-05-18T06:31:46.907Z,90
2018-05-18T06:32:47.385Z,90
2018-05-18T06:33:47.040Z,90
2018-05-18T06:34:46.750Z,93
2018-05-18T06:35:47.592Z,95
2018-05-18T06:37:09.305Z,99
2018-05-18T06:38:09.155Z,102
2018-05-18T06:39:54.234Z,104
2018-05-18T06:41:38.927Z,106
2018-05-18T06:42:41.674Z,112
2018-05-18T06:43:40.906Z,116
2018-05-18T06:44:41.047Z,114
2018-05-18T06:45:39.109Z,109
2018-05-18T06:46:38.763Z,104
2018-05-18T06:47:39.719Z,104
2018-05-18T06:48:39.709Z,102
2018-05-18T06:49:39.780Z,102
2018-05-18T06:50:39.651Z,105
2018-05-18T06:51:39.378Z,112
2018-05-18T06:52:39.217Z,129
2018-05-18T06:54:00.929Z,142
2018-05-18T06:55:00.910Z,155
2018-05-18T06:56:00.875Z,176
2018-05-18T06:57:00.680Z,261
2018-05-18T06:58:00.455Z,217
2018-05-18T06:59:01.355Z,220
2018-05-18T07:00:22.870Z,181
2018-05-18T07:01:22.604Z,176
2018-05-18T07:02:23.622Z,169
2018-05-18T07:03:23.092Z,161
2018-05-18T07:04:22.787Z,154
2018-05-18T07:05:23.765Z,151
2018-05-18T07:06:23.651Z,154
2018-05-18T07:07:23.274Z,151
2018-05-18T07:08:22.984Z,144
2018-05-18T07:09:22.825Z,140
2018-05-18T07:10:23.719Z,138
2018-05-18T07:11:23.735Z,141
2018-05-18T07:12:23.678Z,151
2018-05-18T07:13:23.393Z,167
2018-05-18T07:14:23.071Z,173
2018-05-18T07:15:23.457Z,172
2018-05-18T07:16:23.420Z,175
2018-05-18T07:17:23.105Z,176
2018-05-18T07:18:22.921Z,165
2018-05-18T07:19:22.643Z,162
2018-05-18T07:20:23.370Z,160
2018-05-18T07:21:23.063Z,161
2018-05-18T07:22:22.633Z,156
2018-05-18T07:23:23.587Z,153
2018-05-18T07:24:23.363Z,157
2018-05-18T07:25:45.348Z,174
2018-05-18T07:26:45.923Z,185
2018-05-18T07:27:46.135Z,183
2018-05-18T07:28:45.962Z,178
2018-05-18T07:29:45.931Z,181
2018-05-18T07:30:45.871Z,180
2018-05-18T07:31:58.132Z,171
2018-05-18T07:32:46.435Z,161
2018-05-18T07:33:45.518Z,151
2018-05-18T07:34:45.807Z,145
2018-05-18T07:35:45.587Z,143
2018-05-18T07:36:45.766Z,138
2018-05-18T07:37:46.465Z,137
2018-05-18T07:38:45.436Z,141
2018-05-18T07:39:45.238Z,142
2018-05-18T07:40:45.961Z,140
2018-05-18T07:41:45.806Z,130
2018-05-18T07:42:45.714Z,124
2018-05-18T07:43:46.607Z,121
2018-05-18T07:45:06.695Z,119
2018-05-18T07:46:07.345Z,122
2018-05-18T07:47:07.506Z,130
2018-05-18T07:48:29.135Z,146
2018-05-18T07:49:30.112Z,161
2018-05-18T07:50:30.091Z,176
2018-05-18T07:51:29.961Z,196
2018-05-18T07:52:29.660Z,227
2018-05-18T07:53:29.416Z,256
2018-05-18T07:54:29.224Z,319
2018-05-18T07:55:51.436Z,250
2018-05-18T07:56:52.580Z,273
2018-05-18T07:57:52.465Z,499
2018-05-18T07:59:35.446Z,262
2018-05-18T08:00:36.334Z,430
2018-05-18T08:01:58.756Z,676
2018-05-18T08:02:59.889Z,443
2018-05-18T08:03:58.805Z,345
2018-05-18T08:04:58.599Z,316
2018-05-18T08:05:59.293Z,296
2018-05-18T08:07:00.798Z,281
2018-05-18T08:08:01.317Z,260
2018-05-18T08:09:05.933Z,246
2018-05-18T08:10:01.436Z,246
2018-05-18T08:10:59.431Z,251
2018-05-18T08:12:00.340Z,255
2018-05-18T08:12:59.312Z,262
2018-05-18T08:13:59.511Z,256
2018-05-18T08:14:59.812Z,254
2018-05-18T08:15:58.661Z,235
2018-05-18T08:16:58.502Z,238
2018-05-18T08:18:00.502Z,260
2018-05-18T08:18:59.217Z,281
2018-05-18T08:19:59.087Z,419
2018-05-18T08:21:42.495Z,281
2018-05-18T08:22:42.775Z,273
2018-05-18T08:24:04.341Z,283
2018-05-18T08:25:04.160Z,288
2018-05-18T08:26:04.891Z,299
2018-05-18T08:27:04.575Z,302
2018-05-18T08:28:26.280Z,376
2018-05-18T08:29:27.069Z,318
2018-05-18T08:30:27.220Z,321
2018-05-18T08:31:27.048Z,312
2018-05-18T08:32:26.920Z,324
2018-05-18T08:33:26.692Z,350
2018-05-18T08:34:48.477Z,385
2018-05-18T08:35:49.147Z,416
2018-05-18T08:36:49.109Z,361
2018-05-18T08:37:48.829Z,366
2018-05-18T08:39:32.308Z,332
2018-05-18T08:40:32.239Z,381
2018-05-18T08:41:32.991Z,330
2018-05-18T08:42:36.160Z,418
2018-05-18T08:43:33.185Z,357
2018-05-18T08:44:33.054Z,318
2018-05-18T08:45:33.445Z,311
2018-05-18T08:46:32.516Z,290
2018-05-18T08:47:32.317Z,291
2018-05-18T08:48:32.120Z,334
2018-05-18T08:49:33.026Z,773
2018-05-18T08:50:33.247Z,780
2018-05-18T08:51:33.734Z,351
2018-05-18T08:52:32.843Z,327
2018-05-18T08:53:53.925Z,296
2018-05-18T08:54:54.775Z,289
2018-05-18T08:55:54.633Z,284
2018-05-18T08:56:54.997Z,286
2018-05-18T08:57:54.930Z,285
2018-05-18T08:58:54.943Z,273
2018-05-18T08:59:54.695Z,257
2018-05-18T09:00:54.468Z,259
2018-05-18T09:01:56.658Z,277
2018-05-18T09:02:54.749Z,298
2018-05-18T09:04:16.138Z,320
2018-05-18T09:05:16.702Z,325
2018-05-18T09:06:16.588Z,309
2018-05-18T09:07:37.577Z,321
2018-05-18T09:08:59.569Z,327
2018-05-18T09:09:59.474Z,423
2018-05-18T09:10:59.438Z,419
2018-05-18T09:12:00.365Z,372
2018-05-18T09:13:00.487Z,393
2018-05-18T09:14:21.288Z,368
2018-05-18T09:15:21.871Z,357
2018-05-18T09:16:38.160Z,477
2018-05-18T09:17:37.172Z,346
2018-05-18T09:18:37.796Z,354
2018-05-18T09:19:38.236Z,409
2018-05-18T09:20:37.990Z,339
2018-05-18T09:21:37.898Z,361
2018-05-18T09:23:42.178Z,571
2018-05-18T09:25:04.326Z,385
2018-05-18T09:26:27.246Z,356
2018-05-18T09:27:49.157Z,347
2018-05-18T09:28:50.118Z,338
2018-05-18T09:29:50.013Z,338
2018-05-18T09:30:50.122Z,297
2018-05-18T09:31:49.954Z,311
2018-05-18T09:32:50.134Z,368
2018-05-18T09:34:55.335Z,569
2018-05-18T09:35:56.432Z,490
2018-05-18T09:36:55.941Z,429
2018-05-18T09:37:55.776Z,475
2018-05-18T09:38:55.536Z,573
2018-05-18T09:39:56.395Z,832
2018-05-18T09:40:56.101Z,699
2018-05-18T09:41:55.929Z,520
2018-05-18T09:42:55.792Z,390
2018-05-18T09:43:55.786Z,348
2018-05-18T09:44:55.445Z,329
2018-05-18T09:45:56.323Z,312
2018-05-18T09:46:56.004Z,305
2018-05-18T09:47:55.825Z,299
2018-05-18T09:48:55.816Z,309
2018-05-18T09:50:39.344Z,729
2018-05-18T09:51:39.171Z,293
2018-05-18T09:52:38.920Z,272
2018-05-18T09:53:39.535Z,318
2018-05-18T09:54:39.416Z,786
2018-05-18T09:56:01.182Z,345
2018-05-18T09:57:01.057Z,364
2018-05-18T09:58:00.919Z,328
2018-05-18T09:59:02.223Z,345
2018-05-18T10:00:04.564Z,352
2018-05-18T10:01:01.494Z,315
2018-05-18T10:02:01.356Z,298
2018-05-18T10:03:01.260Z,291
2018-05-18T10:04:01.110Z,301
2018-05-18T10:05:01.511Z,349
2018-05-18T10:06:01.489Z,795
2018-05-18T10:07:01.534Z,786
2018-05-18T10:08:01.199Z,333
2018-05-18T10:09:01.309Z,338
2018-05-18T10:10:01.239Z,460
2018-05-18T10:11:01.279Z,840
2018-05-18T10:12:01.340Z,526
2018-05-18T10:13:46.429Z,450
2018-05-18T10:14:46.376Z,372
2018-05-18T10:15:46.305Z,351
2018-05-18T10:16:46.411Z,331
2018-05-18T10:17:46.269Z,324
2018-05-18T10:18:47.184Z,321
2018-05-18T10:19:47.035Z,328
2018-05-18T10:20:47.078Z,340
2018-05-18T10:21:47.085Z,420
2018-05-18T10:22:47.025Z,273
2018-05-18T10:24:58.456Z,242
2018-05-18T10:25:59.334Z,351
2018-05-18T10:26:59.133Z,657
2018-05-18T10:27:59.117Z,811
2018-05-18T10:28:59.076Z,845
2018-05-18T10:29:59.315Z,444
2018-05-18T10:30:59.000Z,450
2018-05-18T10:31:59.835Z,510
2018-05-18T10:32:59.858Z,574
2018-05-18T10:34:29.219Z,378
2018-05-18T10:35:29.223Z,389
2018-05-18T10:36:28.967Z,536
2018-05-18T10:37:29.452Z,789
2018-05-18T10:39:12.019Z,859
2018-05-18T10:40:37.044Z,370
2018-05-18T10:41:37.951Z,337
2018-05-18T10:43:00.303Z,662
2018-05-18T10:44:00.240Z,371
2018-05-18T10:45:00.418Z,315
2018-05-18T10:46:00.798Z,325
2018-05-18T10:48:05.217Z,413
2018-05-18T10:49:49.253Z,442
2018-05-18T10:50:49.295Z,375
2018-05-18T10:52:33.981Z,418
2018-05-18T10:53:58.763Z,307
2018-05-18T10:55:00.019Z,308
2018-05-18T10:55:59.192Z,322
2018-05-18T10:57:02.683Z,352
2018-05-18T10:58:01.807Z,339
2018-05-18T10:58:59.721Z,395
2018-05-18T11:00:01.655Z,491
2018-05-18T11:01:01.652Z,552
2018-05-18T11:01:59.700Z,352
2018-05-18T11:02:59.570Z,309
2018-05-18T11:03:59.931Z,288
2018-05-18T11:04:58.858Z,271
2018-05-18T11:05:59.237Z,702
2018-05-18T11:07:22.815Z,717
2018-05-18T11:08:21.596Z,752
2018-05-18T11:09:42.810Z,846
2018-05-18T11:11:05.627Z,467
2018-05-18T11:12:08.177Z,428
2018-05-18T11:13:05.734Z,406
2018-05-18T11:14:06.550Z,361
2018-05-18T11:15:06.351Z,370
2018-05-18T11:16:06.258Z,422
2018-05-18T11:17:05.943Z,476
2018-05-18T11:18:06.589Z,370
2018-05-18T11:19:29.279Z,366
2018-05-18T11:20:51.987Z,335
2018-05-18T11:21:52.138Z,335
2018-05-18T11:22:52.346Z,370
2018-05-18T11:23:52.388Z,408
2018-05-18T11:24:52.507Z,533
2018-05-18T11:25:53.180Z,573
2018-05-18T11:26:52.404Z,516
2018-05-18T11:27:52.129Z,575
2018-05-18T11:28:54.734Z,428
2018-05-18T11:29:52.489Z,631
2018-05-18T11:30:52.499Z,345
2018-05-18T11:31:53.016Z,350
2018-05-18T11:32:51.874Z,375
2018-05-18T11:33:53.504Z,617
2018-05-18T11:34:52.458Z,337
2018-05-18T11:36:35.905Z,318
2018-05-18T11:37:36.910Z,347
2018-05-18T11:38:36.774Z,316
2018-05-18T11:39:38.448Z,317
2018-05-18T11:40:36.523Z,391
2018-05-18T11:41:36.568Z,443
2018-05-18T11:42:36.528Z,905
2018-05-18T11:43:36.400Z,648
2018-05-18T11:44:36.823Z,865
2018-05-18T11:45:58.639Z,341
2018-05-18T11:47:22.403Z,299
2018-05-18T11:48:22.122Z,286
2018-05-18T11:49:43.579Z,286
2018-05-18T11:50:44.968Z,288
2018-05-18T11:51:44.038Z,534
2018-05-18T11:52:44.081Z,775
2018-05-18T11:54:05.800Z,739
2018-05-18T11:55:06.588Z,737
2018-05-18T11:56:06.691Z,712
2018-05-18T11:57:06.625Z,705
2018-05-18T11:58:06.645Z,712
2018-05-18T11:59:06.712Z,726
2018-05-18T12:00:06.457Z,728
2018-05-18T12:01:27.869Z,761
2018-05-18T12:02:50.576Z,791
2018-05-18T12:03:51.285Z,778
2018-05-18T12:04:51.155Z,783
2018-05-18T12:06:13.330Z,433
2018-05-18T12:07:35.535Z,691
2018-05-18T12:08:36.348Z,397
2018-05-18T12:09:36.199Z,754
2018-05-18T12:10:36.011Z,760
2018-05-18T12:11:36.034Z,775
2018-05-18T12:12:35.859Z,786
2018-05-18T12:13:38.759Z,767
2018-05-18T12:14:38.533Z,742
2018-05-18T12:15:37.819Z,758
2018-05-18T12:16:36.799Z,762
2018-05-18T12:17:36.350Z,744
2018-05-18T12:18:36.960Z,738
2018-05-18T12:19:41.272Z,743
2018-05-18T12:20:36.502Z,743
2018-05-18T12:21:37.174Z,741
2018-05-18T12:22:35.886Z,790
2018-05-18T12:23:36.008Z,748
2018-05-18T12:24:36.652Z,772
2018-05-18T12:25:37.751Z,765
2018-05-18T12:26:36.545Z,483
2018-05-18T12:27:36.574Z,722
2018-05-18T12:28:36.608Z,810
2018-05-18T12:29:37.433Z,578
2018-05-18T12:30:36.388Z,760
2018-05-18T12:31:58.891Z,770
2018-05-18T12:32:58.742Z,741
2018-05-18T12:34:01.943Z,736
2018-05-18T12:34:59.175Z,465
2018-05-18T12:36:20.533Z,689
2018-05-18T12:37:21.580Z,671
2018-05-18T12:38:21.521Z,640
2018-05-18T12:39:21.185Z,647
2018-05-18T12:40:21.013Z,677
2018-05-18T12:41:21.066Z,707
2018-05-18T12:42:21.280Z,744
2018-05-18T12:43:21.812Z,730
2018-05-18T12:44:20.808Z,734
2018-05-18T12:45:20.815Z,737
2018-05-18T12:46:25.124Z,684
2018-05-18T12:47:20.966Z,660
2018-05-18T12:48:20.702Z,674
2018-05-18T12:49:20.671Z,721
2018-05-18T12:50:20.502Z,727
2018-05-18T12:51:21.050Z,738
2018-05-18T12:53:05.899Z,738
2018-05-18T12:54:06.157Z,703
2018-05-18T12:55:05.811Z,692
2018-05-18T12:56:05.665Z,705
2018-05-18T12:57:06.696Z,721
2018-05-18T12:58:06.476Z,729
2018-05-18T12:59:06.543Z,736
2018-05-18T13:00:06.567Z,690
2018-05-18T13:01:09.576Z,443
2018-05-18T13:02:06.497Z,518
2018-05-18T13:03:07.971Z,343
2018-05-18T13:04:05.619Z,656
2018-05-18T13:05:06.686Z,673
2018-05-18T13:06:06.181Z,686
2018-05-18T13:07:05.983Z,657
2018-05-18T13:08:06.307Z,631
2018-05-18T13:09:06.052Z,622
2018-05-18T13:10:10.805Z,628
2018-05-18T13:11:05.484Z,662
2018-05-18T13:12:07.142Z,668
2018-05-18T13:13:05.984Z,646
2018-05-18T13:14:06.200Z,639
2018-05-18T13:15:06.028Z,603
2018-05-18T13:16:06.246Z,639
2018-05-18T13:17:06.285Z,650
2018-05-18T13:18:06.823Z,364
2018-05-18T13:19:06.117Z,661
2018-05-18T13:20:33.891Z,665
2018-05-18T13:21:34.201Z,641
2018-05-18T13:22:29.428Z,683
2018-05-18T13:23:31.093Z,262
2018-05-18T13:24:30.572Z,426
2018-05-18T13:25:53.376Z,617
2018-05-18T13:26:55.141Z,642
2018-05-18T13:28:14.931Z,642
2018-05-18T13:29:15.594Z,596
2018-05-18T13:30:15.869Z,566
2018-05-18T13:31:15.566Z,593
2018-05-18T13:32:15.557Z,615
2018-05-18T13:33:15.168Z,581
2018-05-18T13:34:37.146Z,430
2018-05-18T13:35:37.978Z,507
2018-05-18T13:36:38.229Z,519
2018-05-18T13:37:38.387Z,492
2018-05-18T13:38:38.977Z,566
2018-05-18T13:39:38.091Z,564
2018-05-18T13:40:38.341Z,602
2018-05-18T13:41:37.282Z,319
2018-05-18T13:42:38.253Z,581
2018-05-18T13:43:38.119Z,597
2018-05-18T13:44:37.899Z,556
2018-05-18T13:46:02.374Z,550
2018-05-18T13:47:09.661Z,528
2018-05-18T13:48:03.396Z,555
2018-05-18T13:49:04.412Z,576
2018-05-18T13:50:03.156Z,594
2018-05-18T13:51:05.728Z,603
2018-05-18T13:52:02.624Z,562
2018-05-18T13:53:02.644Z,364
2018-05-18T13:54:26.717Z,217
2018-05-18T13:55:27.149Z,280
2018-05-18T13:56:27.527Z,534
2018-05-18T13:57:48.322Z,534
2018-05-18T13:58:49.196Z,548
2018-05-18T13:59:48.815Z,553
2018-05-18T14:00:49.278Z,555
2018-05-18T14:01:48.199Z,554
2018-05-18T14:02:48.991Z,543
2018-05-18T14:04:11.279Z,521
2018-05-18T14:05:11.469Z,503
2018-05-18T14:06:12.099Z,492
2018-05-18T14:07:11.814Z,404
2018-05-18T14:08:32.420Z,499
2018-05-18T14:09:56.906Z,532
2018-05-18T14:11:01.533Z,542
2018-05-18T14:11:58.623Z,516
2018-05-18T14:12:58.313Z,499
2018-05-18T14:13:56.835Z,483
2018-05-18T14:14:56.952Z,471
2018-05-18T14:15:57.593Z,416
2018-05-18T14:16:56.567Z,458
2018-05-18T14:18:02.884Z,488
2018-05-18T14:18:59.179Z,506
2018-05-18T14:19:56.488Z,511
2018-05-18T14:21:05.116Z,512
2018-05-18T14:21:57.104Z,472
2018-05-18T14:22:56.484Z,463
2018-05-18T14:23:57.771Z,453
2018-05-18T14:25:11.446Z,461
2018-05-18T14:26:00.758Z,442
2018-05-18T14:27:21.515Z,456
2018-05-18T14:28:31.727Z,407
2018-05-18T14:29:29.222Z,391
2018-05-18T14:31:04.647Z,312
2018-05-18T14:35:39.038Z,440
2018-05-18T14:36:41.986Z,422
2018-05-18T14:37:21.343Z,427
2018-05-18T14:38:20.195Z,455
2018-05-18T14:39:20.842Z,198
2018-05-18T14:41:20.825Z,411
2018-05-18T14:42:21.130Z,416
2018-05-18T14:43:21.565Z,411
2018-05-18T14:44:23.886Z,404
2018-05-18T14:45:23.376Z,384
2018-05-18T14:46:21.610Z,386
2018-05-18T14:47:22.726Z,366
2018-05-18T14:48:21.474Z,393
2018-05-18T14:49:21.631Z,407
2018-05-18T14:50:44.041Z,385
2018-05-18T14:51:44.542Z,365
2018-05-18T14:53:07.557Z,348
2018-05-18T14:54:30.889Z,343
2018-05-18T14:55:30.755Z,317
2018-05-18T14:56:32.553Z,297
2018-05-18T14:57:30.559Z,295
2018-05-18T14:58:52.268Z,297
2018-05-18T14:59:52.626Z,292
2018-05-18T15:00:52.752Z,303
2018-05-18T15:01:52.562Z,289
2018-05-18T15:02:52.290Z,308
2018-05-18T15:03:52.208Z,317
2018-05-18T15:04:53.191Z,311
2018-05-18T15:05:52.678Z,288
2018-05-18T15:06:53.148Z,270
2018-05-18T15:07:53.372Z,288
2018-05-18T15:08:53.026Z,303
2018-05-18T15:09:52.709Z,237
2018-05-18T15:10:53.945Z,274
2018-05-18T15:11:52.496Z,182